Time;durP1;ratioP1;P1;durP2;ratioP2;P2;SDS_P1;SDS_P2;PMS_P1;PMS_P2;Temp;Humidity;BMP_temperature;BMP_pressure;BME280_temperature;BME280_humidity;BME280_pressure;Samples;Min_cycle;Max_cycle;Signal;HPM_P1;HPM_P2
2021/08/18 00:01:10;;;;;;;41.72;16.15;;;;;;;20.29;56.64;95631.25;5011703;28;20156;-64
2021/08/18 00:03:36;;;;;;;45.90;17.95;;;;;;;20.24;56.42;95631.53;5009799;28;20143;-65
2021/08/18 00:06:02;;;;;;;41.22;15.90;;;;;;;20.20;56.04;95631.44;5008566;28;20050;-64
2021/08/18 00:08:27;;;;;;;46.35;16.85;;;;;;;20.17;56.42;95624.06;5007832;28;20038;-65
2021/08/18 00:10:53;;;;;;;39.90;14.77;;;;;;;20.11;55.77;95621.97;5009568;28;20141;-65
2021/08/18 00:13:22;;;;;;;34.80;13.88;;;;;;;20.02;54.62;95616.00;5009424;28;20118;-65
2021/08/18 00:15:49;;;;;;;34.35;14.93;;;;;;;19.59;55.66;95602.31;5011027;28;20432;-64
2021/08/18 00:18:14;;;;;;;34.83;14.57;;;;;;;19.73;55.98;95594.56;5009482;28;20046;-65
2021/08/18 00:20:39;;;;;;;30.48;12.63;;;;;;;19.88;56.29;95617.25;5008677;28;20034;-64
2021/08/18 00:23:05;;;;;;;37.15;15.35;;;;;;;19.98;56.13;95629.44;5009417;28;20510;-64
2021/08/18 00:25:30;;;;;;;38.30;15.52;;;;;;;19.98;56.14;95624.81;5009338;28;20101;-65
2021/08/18 00:27:56;;;;;;;47.55;16.40;;;;;;;19.84;56.33;95607.50;5010860;28;20071;-65
2021/08/18 00:30:21;;;;;;;41.53;15.65;;;;;;;19.91;56.32;95624.66;5009156;28;20046;-64
2021/08/18 00:32:47;;;;;;;36.22;15.05;;;;;;;19.97;55.67;95609.75;5007895;28;20038;-64
2021/08/18 00:35:12;;;;;;;40.58;15.32;;;;;;;19.97;55.88;95607.06;5008511;28;20084;-64
2021/08/18 00:37:38;;;;;;;32.83;13.77;;;;;;;19.97;55.83;95611.66;5008788;28;20607;-66
2021/08/18 00:40:04;;;;;;;28.67;12.38;;;;;;;20.06;56.02;95617.63;5011066;28;20030;-65
2021/08/18 00:42:29;;;;;;;26.85;13.65;;;;;;;19.98;55.49;95624.03;5007782;28;20065;-65
2021/08/18 00:44:55;;;;;;;30.10;13.57;;;;;;;19.96;55.69;95632.50;5007821;28;20042;-64
2021/08/18 00:47:21;;;;;;;32.83;12.85;;;;;;;20.02;55.75;95626.81;5008425;28;20030;-64
2021/08/18 00:49:46;;;;;;;33.35;13.98;;;;;;;20.05;55.39;95629.56;5008382;28;20494;-65
2021/08/18 00:52:12;;;;;;;30.50;13.40;;;;;;;19.97;55.63;95611.66;5010724;28;20026;-65
2021/08/18 00:54:37;;;;;;;34.17;13.80;;;;;;;20.02;55.43;95626.81;5007463;28;20056;-65
2021/08/18 00:57:03;;;;;;;33.85;14.20;;;;;;;19.79;56.02;95610.47;5008556;28;20615;-65
2021/08/18 00:59:30;;;;;;;38.35;14.82;;;;;;;20.05;55.68;95616.06;5007483;28;20034;-65
2021/08/18 01:01:56;;;;;;;32.80;14.65;;;;;;;20.07;55.50;95604.94;5008794;28;20038;-64
2021/08/18 01:04:21;;;;;;;33.10;14.82;;;;;;;20.06;55.12;95614.94;5008250;28;20483;-64
2021/08/18 01:06:47;;;;;;;36.00;15.95;;;;;;;19.73;56.31;95591.84;5009902;28;20456;-65
2021/08/18 01:09:17;;;;;;;30.75;14.27;;;;;;;19.68;55.94;95589.41;5007415;28;20129;-65
2021/08/18 01:11:45;;;;;;;37.88;14.77;;;;;;;19.80;56.09;95603.94;5008824;28;20033;-65
2021/08/18 01:14:11;;;;;;;38.80;15.82;;;;;;;19.64;56.07;95582.38;5007060;28;20515;-64
2021/08/18 01:16:39;;;;;;;37.35;15.38;;;;;;;19.72;55.77;95584.91;5008185;28;20061;-65
2021/08/18 01:19:05;;;;;;;49.08;17.58;;;;;;;19.69;55.99;95577.50;5009515;28;20229;-66
2021/08/18 01:21:32;;;;;;;35.00;15.07;;;;;;;19.81;54.97;95597.41;4999136;28;20072;-65
2021/08/18 01:23:57;;;;;;;30.40;14.38;;;;;;;19.53;54.51;95575.94;5008468;28;20086;-65
2021/08/18 01:26:22;;;;;;;31.13;15.35;;;;;;;19.73;55.22;95602.66;5008183;28;20524;-65
2021/08/18 01:28:50;;;;;;;29.05;13.10;;;;;;;19.74;54.92;95598.81;5008420;28;20052;-65
2021/08/18 01:31:17;;;;;;;30.90;13.63;;;;;;;19.64;54.94;95561.56;5008576;28;20040;-65
2021/08/18 01:33:42;;;;;;;43.50;15.65;;;;;;;19.85;55.23;95599.03;5010461;28;20427;-65
2021/08/18 01:36:07;;;;;;;32.35;14.77;;;;;;;19.92;55.16;95601.16;5007617;28;20042;-65
2021/08/18 01:38:33;;;;;;;40.97;14.82;;;;;;;19.82;54.96;95588.19;5008206;28;20058;-65
2021/08/18 01:40:58;;;;;;;31.17;13.73;;;;;;;19.91;54.66;95594.16;5008255;28;20510;-65
2021/08/18 01:43:23;;;;;;;26.08;12.90;;;;;;;19.87;54.54;95590.63;5008354;28;20030;-65
2021/08/18 01:45:50;;;;;;;33.78;13.63;;;;;;;19.84;54.54;95588.59;5009788;28;20022;-65
2021/08/18 01:48:20;;;;;;;30.58;13.25;;;;;;;19.81;54.47;95589.31;5008189;28;20049;-65
2021/08/18 01:50:47;;;;;;;28.95;14.07;;;;;;;19.85;54.43;95584.78;5007272;28;20496;-65
2021/08/18 01:53:22;;;;;;;34.65;13.93;;;;;;;19.93;53.62;95600.00;5008093;28;20053;-65
2021/08/18 01:55:48;;;;;;;31.13;13.25;;;;;;;19.89;54.26;95596.44;5007751;28;20050;-65
2021/08/18 01:58:13;;;;;;;36.90;14.77;;;;;;;19.97;54.26;95588.16;5009291;28;20106;-65
2021/08/18 02:00:40;;;;;;;32.08;13.80;;;;;;;19.91;54.24;95586.88;5013830;28;20129;-65
2021/08/18 02:03:05;;;;;;;33.33;13.23;;;;;;;20.08;54.47;95603.78;5011723;28;20041;-65
2021/08/18 02:05:31;;;;;;;35.47;14.10;;;;;;;20.12;54.22;95604.66;5011193;28;20026;-65
2021/08/18 02:07:56;;;;;;;29.15;12.60;;;;;;;20.15;53.96;95602.03;5011116;28;20500;-65
2021/08/18 02:10:22;;;;;;;34.45;14.68;;;;;;;20.20;53.71;95601.75;5011721;28;20026;-65
2021/08/18 02:12:48;;;;;;;32.53;13.93;;;;;;;20.17;54.03;95580.84;5013680;28;20109;-65
2021/08/18 02:15:24;;;;;;;36.08;13.60;;;;;;;20.25;53.69;95590.66;5011557;28;20104;-64
2021/08/18 02:17:50;;;;;;;30.25;13.05;;;;;;;19.77;53.67;95524.47;5027962;23;20038;-65
2021/08/18 02:20:22;;;;;;;39.70;14.57;;;;;;;19.65;53.64;95503.75;5005038;28;20053;-65
2021/08/18 02:22:48;;;;;;;28.00;13.30;;;;;;;19.72;53.94;95512.03;5011047;28;20030;-65
2021/08/18 02:25:13;;;;;;;29.52;12.93;;;;;;;19.80;53.82;95525.66;5013212;28;20022;-65
2021/08/18 02:27:39;;;;;;;29.23;13.15;;;;;;;19.51;53.17;95508.84;5010908;28;20516;-65
2021/08/18 02:30:06;;;;;;;36.53;14.32;;;;;;;19.76;53.82;95551.78;5010920;28;20041;-66
2021/08/18 02:32:31;;;;;;;33.95;14.10;;;;;;;19.76;53.82;95522.09;5010832;28;20164;-66
2021/08/18 02:34:57;;;;;;;36.55;14.48;;;;;;;19.54;54.06;95513.50;5010668;28;20061;-65
2021/08/18 02:37:22;;;;;;;28.63;13.57;;;;;;;19.55;53.65;95504.31;5010091;28;20046;-65
2021/08/18 02:39:48;;;;;;;39.38;14.85;;;;;;;19.63;53.67;95518.75;5012976;28;20472;-65
2021/08/18 02:42:13;;;;;;;32.03;13.15;;;;;;;19.74;53.77;95517.06;5010876;28;20488;-65
2021/08/18 02:44:39;;;;;;;26.40;12.93;;;;;;;20.15;53.69;95577.72;5010447;28;20052;-65
2021/08/18 02:47:05;;;;;;;22.08;12.02;;;;;;;19.69;53.35;95493.81;5009192;28;20502;-65
2021/08/18 02:49:30;;;;;;;23.50;11.85;;;;;;;19.47;53.48;95519.53;5008779;28;20034;-65
2021/08/18 02:51:55;;;;;;;26.38;12.27;;;;;;;19.68;53.73;95524.66;5012211;28;20026;-65
2021/08/18 02:54:23;;;;;;;28.88;12.82;;;;;;;19.99;53.84;95568.88;5010591;28;20064;-65
2021/08/18 02:56:50;;;;;;;24.70;12.80;;;;;;;19.78;53.26;95523.31;5010153;28;20096;-65
2021/08/18 02:59:16;;;;;;;28.92;13.05;;;;;;;19.71;53.23;95512.38;5010380;28;20100;-65
2021/08/18 03:01:41;;;;;;;23.27;12.75;;;;;;;19.65;53.03;95513.78;5010284;28;20042;-65
2021/08/18 03:04:06;;;;;;;26.15;12.63;;;;;;;19.61;53.65;95497.53;5012578;28;20032;-65
2021/08/18 03:06:32;;;;;;;25.95;13.07;;;;;;;19.74;53.29;95560.25;5009426;28;20037;-65
2021/08/18 03:08:57;;;;;;;28.13;13.73;;;;;;;19.69;53.45;95520.03;5009833;28;20575;-65
2021/08/18 03:11:22;;;;;;;34.25;13.50;;;;;;;19.64;53.39;95510.28;5010291;28;20515;-65
2021/08/18 03:13:48;;;;;;;23.55;12.50;;;;;;;19.74;53.65;95500.88;5010174;28;20704;-65
2021/08/18 03:16:13;;;;;;;32.05;13.52;;;;;;;19.65;53.53;95501.06;5009154;28;20432;-66
2021/08/18 03:18:38;;;;;;;30.25;12.93;;;;;;;19.86;53.21;95525.06;5012262;28;20022;-65
2021/08/18 03:21:04;;;;;;;26.02;13.00;;;;;;;19.87;52.83;95525.81;5009674;28;20061;-65
2021/08/18 03:23:29;;;;;;;29.23;12.75;;;;;;;19.67;52.95;95493.41;5009511;28;20037;-65
2021/08/18 03:25:55;;;;;;;23.35;12.55;;;;;;;19.80;53.28;95502.16;5009487;28;20104;-65
2021/08/18 03:28:20;;;;;;;29.88;14.18;;;;;;;20.07;53.35;95542.81;5009644;28;20361;-65
2021/08/18 03:30:46;;;;;;;26.85;14.38;;;;;;;19.98;53.24;95526.81;5012012;28;20030;-65
2021/08/18 03:33:11;;;;;;;24.88;12.25;;;;;;;19.77;53.21;95496.69;5009742;28;20096;-65
2021/08/18 03:35:36;;;;;;;28.02;13.65;;;;;;;19.79;53.44;95508.69;5008940;28;20426;-65
2021/08/18 03:38:02;;;;;;;21.83;12.40;;;;;;;20.32;53.42;95583.81;5009520;28;20037;-65
2021/08/18 03:40:27;;;;;;;27.45;14.07;;;;;;;19.84;53.41;95494.91;5009574;28;20022;-65
2021/08/18 03:42:53;;;;;;;20.73;13.02;;;;;;;19.65;53.17;95503.75;5011849;28;20026;-65
2021/08/18 03:45:18;;;;;;;25.13;13.77;;;;;;;19.78;53.33;95506.34;5009709;28;20121;-65
2021/08/18 03:47:43;;;;;;;23.75;13.25;;;;;;;20.20;52.96;95563.91;5008707;28;20045;-65
2021/08/18 03:50:10;;;;;;;26.73;13.80;;;;;;;20.39;52.95;95584.00;5008925;28;20144;-65
2021/08/18 03:52:40;;;;;;;21.40;13.43;;;;;;;19.79;53.24;95492.50;5009208;28;20475;-65
2021/08/18 03:55:06;;;;;;;25.52;12.82;;;;;;;20.34;53.13;95570.75;5011514;28;20037;-65
2021/08/18 03:57:31;;;;;;;22.17;14.15;;;;;;;19.91;52.85;95505.06;5008670;28;20042;-67
2021/08/18 03:59:57;;;;;;;28.35;13.73;;;;;;;20.09;52.72;95529.75;5009211;28;20037;-66
2021/08/18 04:02:22;;;;;;;22.23;12.95;;;;;;;19.97;52.77;95514.47;5008029;28;20541;-67
2021/08/18 04:04:47;;;;;;;22.33;13.23;;;;;;;19.79;52.10;95519.47;5009459;28;20049;-67
2021/08/18 04:07:13;;;;;;;24.17;14.07;;;;;;;19.88;52.49;95511.97;5008932;28;20554;-67
2021/08/18 04:09:38;;;;;;;21.70;12.48;;;;;;;20.40;52.27;95590.94;5011494;28;20495;-67
2021/08/18 04:12:04;;;;;;;20.52;13.85;;;;;;;20.30;52.46;95569.91;5009518;28;20038;-68
2021/08/18 04:14:29;;;;;;;17.77;12.25;;;;;;;20.38;52.50;95571.63;5009252;28;20049;-70
2021/08/18 04:16:55;;;;;;;17.88;12.60;;;;;;;20.31;52.07;95563.34;5008729;28;20044;-74
2021/08/18 04:19:20;;;;;;;20.48;12.98;;;;;;;20.66;51.66;95599.22;5008323;28;20357;-70
2021/08/18 04:21:45;;;;;;;24.63;12.93;;;;;;;20.70;52.13;95591.19;5010806;28;20021;-71
2021/08/18 04:24:11;;;;;;;18.77;11.95;;;;;;;20.74;51.70;95603.63;5009795;28;20038;-70
2021/08/18 04:26:36;;;;;;;19.67;12.48;;;;;;;20.79;51.66;95594.44;5009176;28;20042;-70
2021/08/18 04:29:02;;;;;;;17.42;12.18;;;;;;;20.77;51.58;95581.25;5009582;28;20409;-72
2021/08/18 04:31:27;;;;;;;16.85;11.55;;;;;;;20.85;51.23;95592.22;5006268;28;20029;-69
2021/08/18 04:33:52;;;;;;;20.80;12.25;;;;;;;20.75;51.15;95585.47;5011537;28;20022;-69
2021/08/18 04:36:18;;;;;;;17.98;12.35;;;;;;;20.92;51.29;95595.81;5008419;28;20050;-71
2021/08/18 04:38:44;;;;;;;20.20;11.38;;;;;;;21.05;51.06;95601.09;5007625;28;20068;-73
2021/08/18 04:41:09;;;;;;;14.80;11.43;;;;;;;20.99;50.85;95600.59;5008636;28;20500;-69
2021/08/18 04:43:34;;;;;;;19.67;12.55;;;;;;;21.01;50.79;95601.78;5009257;28;20084;-71
2021/08/18 04:46:00;;;;;;;19.25;12.15;;;;;;;21.04;50.82;95594.91;5010409;28;20579;-70
2021/08/18 04:48:25;;;;;;;15.40;11.23;;;;;;;20.98;50.80;95593.59;5009010;28;20080;-70
2021/08/18 04:50:50;;;;;;;14.82;11.75;;;;;;;20.97;51.02;95592.84;5008744;28;20046;-76
2021/08/18 04:53:16;;;;;;;15.45;10.43;;;;;;;21.04;50.91;95597.59;4998381;28;20076;-71
2021/08/18 04:55:42;;;;;;;19.92;12.35;;;;;;;21.10;50.85;95595.38;5007506;28;20065;-70
2021/08/18 04:58:08;;;;;;;15.98;10.88;;;;;;;21.07;50.75;95596.88;5010787;28;20022;-68
2021/08/18 05:00:34;;;;;;;21.33;12.02;;;;;;;20.61;50.22;95542.75;5007999;28;20060;-69
2021/08/18 05:02:59;;;;;;;17.73;11.52;;;;;;;20.81;50.60;95585.97;5008726;28;20042;-69
2021/08/18 05:05:25;;;;;;;17.90;11.98;;;;;;;20.97;50.82;95573.13;5008570;28;20046;-69
2021/08/18 05:07:51;;;;;;;16.70;11.60;;;;;;;21.10;50.71;95590.75;5000814;28;20069;-69
2021/08/18 05:10:17;;;;;;;17.00;11.93;;;;;;;21.27;50.54;95606.50;5008724;28;20078;-69
2021/08/18 05:12:42;;;;;;;17.48;11.63;;;;;;;21.37;50.33;95599.72;5010817;28;20357;-69
2021/08/18 05:15:08;;;;;;;17.48;11.93;;;;;;;21.44;49.94;95605.25;5008711;28;20554;-69
2021/08/18 05:17:33;;;;;;;19.75;11.98;;;;;;;21.18;49.87;95602.47;5008328;28;20124;-69
2021/08/18 05:19:59;;;;;;;15.57;11.95;;;;;;;21.39;50.06;95588.53;5007514;28;20075;-69
2021/08/18 05:22:24;;;;;;;19.50;12.30;;;;;;;21.53;49.58;95599.59;5008195;28;20364;-69
2021/08/18 05:24:49;;;;;;;17.40;12.32;;;;;;;21.62;49.35;95605.53;5010417;28;20049;-69
2021/08/18 05:27:15;;;;;;;16.98;12.77;;;;;;;21.74;49.39;95607.25;5006841;28;20104;-69
2021/08/18 05:29:41;;;;;;;18.75;13.07;;;;;;;21.84;49.10;95603.16;5008487;28;20049;-71
2021/08/18 05:32:06;;;;;;;18.20;12.15;;;;;;;21.87;48.88;95610.56;5007166;28;20400;-70
2021/08/18 05:34:32;;;;;;;20.23;12.95;;;;;;;22.00;48.89;95609.97;5011467;28;20022;-69
2021/08/18 05:36:57;;;;;;;19.73;13.02;;;;;;;22.12;48.54;95600.88;5011869;28;20030;-69
2021/08/18 05:39:22;;;;;;;16.52;12.25;;;;;;;22.30;47.92;95609.22;5010721;28;20140;-69
2021/08/18 05:41:48;;;;;;;17.30;13.38;;;;;;;22.47;47.81;95613.31;5010840;28;20030;-69
2021/08/18 05:44:13;;;;;;;17.25;11.52;;;;;;;22.57;47.76;95599.91;5012126;28;20034;-69
2021/08/18 05:46:38;;;;;;;15.35;12.75;;;;;;;22.66;47.10;95601.53;5011444;28;20072;-69
2021/08/18 05:49:04;;;;;;;19.25;13.07;;;;;;;22.83;46.98;95609.09;5014040;28;20029;-69
2021/08/18 05:51:29;;;;;;;15.32;12.63;;;;;;;22.82;46.36;95605.59;5011683;28;20034;-69
2021/08/18 05:53:56;;;;;;;15.63;12.88;;;;;;;22.96;46.34;95599.56;5002575;28;20104;-70
2021/08/18 05:56:21;;;;;;;17.58;12.85;;;;;;;23.07;45.92;95600.44;5011979;28;20061;-69
2021/08/18 05:58:46;;;;;;;20.75;14.18;;;;;;;23.07;46.37;95611.31;5011986;28;20034;-73
2021/08/18 06:01:12;;;;;;;21.02;13.10;;;;;;;23.19;46.31;95604.06;5012849;28;20041;-73
2021/08/18 06:03:37;;;;;;;22.05;14.77;;;;;;;23.39;46.12;95610.03;5011957;28;20034;-74
2021/08/18 06:06:03;;;;;;;18.58;14.15;;;;;;;23.47;45.64;95609.72;5011272;28;20054;-75
2021/08/18 06:08:29;;;;;;;17.02;12.77;;;;;;;23.82;44.92;95613.91;5011521;28;20085;-73
2021/08/18 06:10:54;;;;;;;18.98;14.68;;;;;;;23.80;44.44;95592.56;5010463;28;20520;-74
2021/08/18 06:13:22;;;;;;;20.75;13.52;;;;;;;24.07;44.35;95612.13;5011859;28;20033;-73
2021/08/18 06:15:47;;;;;;;17.00;14.07;;;;;;;24.10;43.81;95614.06;5013283;28;20101;-73
2021/08/18 06:18:13;;;;;;;19.23;14.07;;;;;;;24.22;43.53;95604.06;5010295;28;20181;-73
2021/08/18 06:20:38;;;;;;;20.23;14.35;;;;;;;24.42;43.31;95615.47;5011628;28;20460;-73
2021/08/18 06:23:03;;;;;;;19.55;14.57;;;;;;;24.66;42.75;95616.72;5003511;28;20030;-70
2021/08/18 06:25:29;;;;;;;18.95;15.02;;;;;;;24.71;42.49;95613.63;5010085;28;20081;-66
2021/08/18 06:27:55;;;;;;;17.42;14.27;;;;;;;24.79;42.62;95615.22;5012715;28;20034;-69
2021/08/18 06:30:20;;;;;;;16.38;13.50;;;;;;;24.82;42.05;95620.66;5012241;28;20554;-68
2021/08/18 06:32:45;;;;;;;16.27;14.32;;;;;;;25.04;42.31;95616.06;5011140;28;20030;-67
2021/08/18 06:35:11;;;;;;;17.85;14.77;;;;;;;25.18;41.80;95612.59;5009667;28;20030;-68
2021/08/18 06:37:37;;;;;;;16.75;14.57;;;;;;;25.30;41.90;95611.47;5001999;28;20045;-68
2021/08/18 06:40:03;;;;;;;18.65;14.32;;;;;;;25.24;41.43;95580.34;5013508;28;20026;-72
2021/08/18 06:42:30;;;;;;;17.58;14.15;;;;;;;25.31;40.53;95613.00;4993414;28;20129;-69
2021/08/18 06:44:55;;;;;;;19.33;15.18;;;;;;;25.08;40.21;95621.53;5010535;28;20044;-69
2021/08/18 06:47:20;;;;;;;18.92;14.82;;;;;;;24.31;41.38;95618.88;5010727;28;20093;-70
2021/08/18 06:49:46;;;;;;;20.33;15.40;;;;;;;24.71;41.19;95616.34;5011001;28;20491;-68
2021/08/18 06:52:11;;;;;;;18.92;14.98;;;;;;;25.15;41.24;95613.38;5012474;28;20621;-70
2021/08/18 06:54:37;;;;;;;17.63;14.35;;;;;;;25.57;40.66;95617.31;5010783;28;20559;-67
2021/08/18 06:57:02;;;;;;;16.20;14.50;;;;;;;25.10;40.96;95609.09;5010166;28;20089;-67
2021/08/18 06:59:28;;;;;;;16.48;14.65;;;;;;;25.63;40.29;95608.34;5011000;28;20065;-66
2021/08/18 07:01:54;;;;;;;19.30;14.02;;;;;;;24.68;41.87;95612.47;5011002;28;20042;-71
2021/08/18 07:04:19;;;;;;;18.90;15.30;;;;;;;25.49;41.13;95599.41;5010012;28;20041;-70
2021/08/18 07:06:44;;;;;;;17.25;15.10;;;;;;;24.59;41.50;95617.47;5010382;28;20032;-69
2021/08/18 07:09:10;;;;;;;17.02;14.98;;;;;;;23.94;43.95;95623.69;5010436;28;20458;-66
2021/08/18 07:11:35;;;;;;;19.67;14.95;;;;;;;23.49;44.65;95610.16;5010527;28;20561;-66
2021/08/18 07:14:01;;;;;;;21.60;15.30;;;;;;;23.38;45.18;95620.13;5010424;28;20100;-66
2021/08/18 07:16:27;;;;;;;16.98;14.52;;;;;;;23.59;43.78;95606.72;5009911;28;20022;-65
2021/08/18 07:18:54;;;;;;;18.20;15.88;;;;;;;23.85;42.40;95624.81;5012262;28;20022;-66
2021/08/18 07:21:20;;;;;;;18.00;15.15;;;;;;;24.19;42.42;95626.56;5009790;28;20038;-65
2021/08/18 07:23:47;;;;;;;17.27;15.13;;;;;;;24.45;42.39;95614.69;5008953;28;20542;-66
2021/08/18 07:26:13;;;;;;;18.15;14.27;;;;;;;23.66;43.65;95616.13;5009618;28;20042;-66
2021/08/18 07:28:38;;;;;;;20.45;15.02;;;;;;;23.45;43.19;95617.47;5009809;28;20455;-66
2021/08/18 07:31:03;;;;;;;16.20;14.50;;;;;;;21.82;47.68;95619.00;5012098;28;20073;-66
2021/08/18 07:33:29;;;;;;;18.35;15.27;;;;;;;23.78;44.33;95615.81;5009910;28;20042;-66
2021/08/18 07:35:54;;;;;;;21.48;15.35;;;;;;;22.68;45.42;95626.38;5009299;28;20119;-66
2021/08/18 07:38:19;;;;;;;17.35;15.57;;;;;;;22.61;45.47;95621.63;5007855;28;20129;-65
2021/08/18 07:40:46;;;;;;;16.30;13.85;;;;;;;22.05;46.91;95625.91;5010080;28;20112;-65
2021/08/18 07:43:12;;;;;;;18.40;14.65;;;;;;;23.04;45.17;95612.06;5011808;28;20127;-65
2021/08/18 07:45:37;;;;;;;16.25;14.25;;;;;;;24.04;43.00;95617.53;5009342;28;20062;-65
2021/08/18 07:48:03;;;;;;;20.48;14.82;;;;;;;24.62;42.15;95616.72;5009750;28;20129;-65
2021/08/18 07:50:28;;;;;;;15.80;14.20;;;;;;;24.57;41.46;95615.13;5008535;28;20045;-64
2021/08/18 07:52:54;;;;;;;15.88;14.35;;;;;;;24.69;41.31;95621.41;5009298;28;20045;-65
2021/08/18 07:55:19;;;;;;;15.75;14.02;;;;;;;23.65;42.96;95618.06;5007823;28;20018;-65
2021/08/18 07:57:44;;;;;;;19.30;15.02;;;;;;;23.15;44.13;95617.59;5010791;28;20121;-65
2021/08/18 08:00:10;;;;;;;15.15;13.57;;;;;;;25.25;40.96;95611.84;5009605;28;20157;-66
2021/08/18 08:02:35;;;;;;;15.95;14.40;;;;;;;24.05;42.72;95621.81;5008535;28;20113;-66
2021/08/18 08:05:05;;;;;;;16.17;14.10;;;;;;;23.38;43.23;95622.06;5009710;28;20133;-66
2021/08/18 08:07:30;;;;;;;17.50;14.38;;;;;;;24.43;41.39;95622.44;5008419;28;20217;-65
2021/08/18 08:09:56;;;;;;;16.92;14.00;;;;;;;25.52;40.22;95621.19;5009915;28;20116;-65
2021/08/18 08:12:21;;;;;;;14.57;13.18;;;;;;;26.48;38.08;95614.88;5009411;28;20125;-66
2021/08/18 08:14:46;;;;;;;16.30;13.40;;;;;;;24.43;40.36;95623.22;5009424;28;20493;-66
2021/08/18 08:17:12;;;;;;;14.85;13.30;;;;;;;24.88;40.38;95615.63;5008741;28;20069;-66
2021/08/18 08:19:37;;;;;;;16.50;13.40;;;;;;;24.73;40.18;95612.09;5009569;28;20046;-66
2021/08/18 08:22:02;;;;;;;15.32;13.73;;;;;;;24.29;40.85;95626.63;5010902;28;20030;-66
2021/08/18 08:24:28;;;;;;;16.85;13.70;;;;;;;24.81;40.16;95624.53;5009028;28;20053;-67
2021/08/18 08:26:53;;;;;;;14.43;12.95;;;;;;;24.00;41.34;95635.75;5008740;28;20038;-71
2021/08/18 08:29:18;;;;;;;17.40;14.00;;;;;;;22.22;45.58;95642.81;5009342;28;20034;-72
2021/08/18 08:31:44;;;;;;;14.13;12.63;;;;;;;21.80;46.46;95639.09;5005846;28;20076;-69
2021/08/18 08:34:10;;;;;;;15.38;12.50;;;;;;;22.76;44.88;95628.78;5011472;28;20124;-70
2021/08/18 08:36:36;;;;;;;14.73;13.23;;;;;;;22.20;45.13;95621.50;5008601;28;20082;-70
2021/08/18 08:39:02;;;;;;;15.10;12.73;;;;;;;21.69;47.26;95640.06;5009205;28;20081;-71
2021/08/18 08:41:27;;;;;;;14.50;12.82;;;;;;;23.75;42.60;95627.41;5009230;28;20034;-70
2021/08/18 08:43:53;;;;;;;15.10;13.15;;;;;;;21.45;46.84;95617.66;5007923;28;20046;-70
2021/08/18 08:46:19;;;;;;;13.02;11.88;;;;;;;22.92;44.31;95630.53;5008884;28;20033;-70
2021/08/18 08:48:44;;;;;;;15.50;12.98;;;;;;;23.28;43.64;95628.94;5011250;28;20029;-71
2021/08/18 08:51:10;;;;;;;16.27;12.75;;;;;;;24.26;41.91;95635.56;5009434;28;20034;-71
2021/08/18 08:53:36;;;;;;;14.55;12.93;;;;;;;25.52;40.24;95634.03;5007213;28;20064;-70
2021/08/18 08:56:02;;;;;;;14.95;12.48;;;;;;;24.94;39.48;95614.09;5008601;28;20092;-71
2021/08/18 08:58:27;;;;;;;14.10;12.77;;;;;;;25.54;39.01;95621.59;5008761;28;20025;-72
2021/08/18 09:00:52;;;;;;;14.48;11.88;;;;;;;24.77;39.19;95626.50;5011209;28;20108;-71
2021/08/18 09:03:22;;;;;;;13.23;11.32;;;;;;;21.56;45.85;95634.06;5008865;28;20153;-71
2021/08/18 09:05:48;;;;;;;14.98;13.40;;;;;;;22.05;46.19;95630.53;5007270;28;20424;-72
2021/08/18 09:08:18;;;;;;;14.27;12.13;;;;;;;23.69;43.03;95628.94;5008200;28;20073;-71
2021/08/18 09:11:08;;;;;;;14.65;12.25;;;;;;;25.95;39.15;95629.41;5008912;28;20125;-71
2021/08/18 09:13:50;;;;;;;13.50;11.73;;;;;;;24.97;38.92;95626.91;5008685;28;20052;-71
2021/08/18 09:16:21;;;;;;;16.40;12.30;;;;;;;23.85;41.34;95626.72;5008523;28;20423;-71
2021/08/18 09:18:50;;;;;;;14.30;12.15;;;;;;;24.72;40.20;95617.88;5009427;28;20029;-71
2021/08/18 09:21:38;;;;;;;14.63;12.82;;;;;;;23.62;42.79;95629.63;5008837;28;20041;-71
2021/08/18 09:24:16;;;;;;;15.63;11.80;;;;;;;23.25;42.41;95630.47;5004664;28;20512;-73
2021/08/18 09:26:48;;;;;;;12.18;10.95;;;;;;;25.26;39.31;95633.22;5008221;28;20448;-71
2021/08/18 09:29:28;;;;;;;12.85;11.57;;;;;;;24.24;40.72;95637.06;5008660;28;20045;-72
2021/08/18 09:31:54;;;;;;;11.77;10.60;;;;;;;23.14;42.94;95635.03;5008904;28;20037;-72
2021/08/18 09:34:19;;;;;;;12.55;11.25;;;;;;;23.87;41.80;95640.72;5008381;28;20053;-71
2021/08/18 09:36:45;;;;;;;11.93;10.07;;;;;;;23.57;41.61;95619.91;5009522;28;20112;-73
2021/08/18 09:39:26;;;;;;;11.23;10.10;;;;;;;24.77;39.43;95629.22;5003655;28;20046;-72
2021/08/18 09:41:53;;;;;;;10.98;9.88;;;;;;;24.22;40.42;95626.59;5007096;28;20458;-73
2021/08/18 09:44:19;;;;;;;11.75;10.63;;;;;;;23.84;41.34;95639.53;5007938;28;20642;-73
2021/08/18 09:46:46;;;;;;;12.70;9.43;;;;;;;23.68;42.19;95630.88;5005254;28;20599;-72
2021/08/18 09:49:12;;;;;;;12.00;10.73;;;;;;;24.76;40.25;95622.19;5010476;28;20357;-70
2021/08/18 09:51:43;;;;;;;13.65;10.65;;;;;;;24.51;40.56;95629.47;5005620;28;20107;-68
2021/08/18 09:54:16;;;;;;;11.98;10.27;;;;;;;23.86;41.02;95569.31;5007771;28;20052;-67
2021/08/18 09:56:45;;;;;;;11.68;10.48;;;;;;;24.45;39.81;95573.91;5007193;28;20511;-69
2021/08/18 09:59:10;;;;;;;12.80;11.32;;;;;;;23.34;41.75;95571.25;5007582;28;20042;-69
2021/08/18 10:01:36;;;;;;;11.05;9.68;;;;;;;23.58;42.44;95591.59;5008389;28;20514;-70
2021/08/18 10:04:03;;;;;;;11.50;10.43;;;;;;;24.20;40.78;95554.72;5010702;28;20037;-69
2021/08/18 10:06:29;;;;;;;11.05;10.02;;;;;;;24.06;41.19;95550.03;5007848;28;20026;-71
2021/08/18 10:08:55;;;;;;;11.32;10.25;;;;;;;24.45;39.64;95584.78;5007612;28;20053;-72
2021/08/18 10:11:23;;;;;;;11.68;10.32;;;;;;;22.70;42.94;95573.31;5008397;28;20144;-73
2021/08/18 10:13:49;;;;;;;19.70;10.15;;;;;;;23.47;42.96;95608.94;5008286;28;20041;-72
2021/08/18 10:16:15;;;;;;;10.48;9.38;;;;;;;21.81;44.98;95561.34;5007794;28;20026;-71
2021/08/18 10:18:44;;;;;;;10.18;9.18;;;;;;;22.34;44.47;95612.00;5010264;28;20037;-67
2021/08/18 10:21:10;;;;;;;10.35;9.32;;;;;;;22.29;45.34;95623.94;5010540;28;20034;-72
2021/08/18 10:23:41;;;;;;;9.68;8.77;;;;;;;24.42;41.43;95627.13;5009143;28;20507;-72
2021/08/18 10:26:06;;;;;;;10.23;9.23;;;;;;;25.88;38.46;95621.22;5010940;28;20048;-70
2021/08/18 10:29:00;;;;;;;11.68;8.80;;;;;;;24.54;40.36;95617.84;5010122;28;20034;-71
2021/08/18 10:31:41;;;;;;;10.55;9.50;;;;;;;26.51;37.15;95611.34;5007473;28;20030;-68
2021/08/18 10:34:30;;;;;;;10.65;9.57;;;;;;;24.42;39.28;95593.72;5013324;28;20057;-70
2021/08/18 10:36:58;;;;;;;12.55;10.02;;;;;;;24.57;40.57;95619.81;5010497;28;20030;-75
2021/08/18 10:42:10;;;;;;;10.63;9.52;;;;;;;26.21;37.81;95605.56;5010402;28;20042;-74
2021/08/18 10:44:49;;;;;;;9.77;8.88;;;;;;;26.12;37.35;95611.47;5010107;28;20037;-72
2021/08/18 10:47:20;;;;;;;10.18;9.13;;;;;;;27.05;36.42;95606.44;5010374;28;20108;-73
2021/08/18 10:49:51;;;;;;;10.50;9.48;;;;;;;26.95;35.16;95599.84;5010960;28;20069;-73
2021/08/18 10:52:47;;;;;;;10.25;9.32;;;;;;;26.47;36.58;95609.84;5007727;28;20056;-72
2021/08/18 10:55:24;;;;;;;11.18;10.05;;;;;;;24.46;40.13;95613.50;5004468;28;20585;-73
2021/08/18 10:57:51;;;;;;;11.85;10.48;;;;;;;23.90;41.23;95587.56;5010699;28;20073;-72
2021/08/18 11:00:19;;;;;;;10.20;9.20;;;;;;;24.93;40.23;95603.56;5011166;28;20034;-73
2021/08/18 11:03:04;;;;;;;10.50;9.60;;;;;;;26.65;36.91;95592.19;5009338;28;20129;-70
2021/08/18 11:05:50;;;;;;;9.60;8.38;;;;;;;23.81;41.34;95577.81;5009597;28;20392;-68
2021/08/18 11:08:18;;;;;;;8.40;7.55;;;;;;;24.89;40.56;95601.63;5010449;28;20141;-78
2021/08/18 11:10:50;;;;;;;9.43;8.52;;;;;;;24.32;40.22;95598.69;5009408;28;20049;-75
2021/08/18 11:13:16;;;;;;;;;;;;;;;23.93;40.98;95603.09;5011465;28;20065;-75
2021/08/18 11:15:49;;;;;;;8.75;7.85;;;;;;;25.17;39.34;95592.00;5012651;28;20334;-75
2021/08/18 11:18:17;;;;;;;8.48;7.72;;;;;;;24.70;40.15;95603.91;5009569;28;20041;-75
2021/08/18 11:20:47;;;;;;;9.93;7.90;;;;;;;23.00;43.47;95610.47;5008970;28;20038;-75